createdAt,value
2022-11-16T00:00:06.551Z,0
2022-11-16T00:05:02.684Z,0
2022-11-16T00:10:02.604Z,0
2022-11-16T00:15:03.248Z,0
2022-11-16T00:20:02.731Z,0
2022-11-16T00:25:02.756Z,0
2022-11-16T00:30:03.579Z,0
2022-11-16T00:35:02.925Z,0
2022-11-16T00:40:03.516Z,0
2022-11-16T00:45:02.488Z,0
2022-11-16T00:50:03.353Z,0
2022-11-16T00:55:04.676Z,0
2022-11-16T01:00:02.626Z,0
2022-11-16T01:05:03.170Z,0
2022-11-16T01:10:03.179Z,0
2022-11-16T01:15:02.697Z,0
2022-11-16T01:20:02.312Z,0
2022-11-16T01:25:03.366Z,0
2022-11-16T01:30:04.326Z,0
2022-11-16T01:35:02.819Z,0
2022-11-16T01:40:02.458Z,0
2022-11-16T01:45:03.472Z,0
2022-11-16T01:50:02.933Z,0
2022-11-16T01:55:03.946Z,0
2022-11-16T02:00:02.319Z,0
2022-11-16T02:05:03.494Z,0
2022-11-16T02:10:03.300Z,0
2022-11-16T02:15:03.167Z,0
2022-11-16T02:20:02.989Z,0
2022-11-16T02:25:03.109Z,0
2022-11-16T02:30:03.116Z,0
2022-11-16T02:35:02.489Z,0
2022-11-16T02:40:03.111Z,0
2022-11-16T02:45:03.121Z,0
2022-11-16T02:50:02.704Z,0
2022-11-16T02:55:04.600Z,0
2022-11-16T03:00:02.993Z,0
2022-11-16T03:05:03.071Z,0
2022-11-16T03:10:02.698Z,0
2022-11-16T03:15:03.195Z,0
2022-11-16T03:20:02.879Z,0
2022-11-16T03:25:02.581Z,0
2022-11-16T03:30:02.464Z,0
2022-11-16T03:35:02.964Z,0
2022-11-16T03:40:02.510Z,0
2022-11-16T03:45:03.106Z,0
2022-11-16T03:50:03.141Z,0
2022-11-16T03:55:03.967Z,0
2022-11-16T04:00:03.079Z,0
2022-11-16T04:05:03.300Z,0
2022-11-16T04:10:02.334Z,0
2022-11-16T04:15:03.536Z,0
2022-11-16T04:20:03.234Z,0
2022-11-16T04:25:02.938Z,0
2022-11-16T04:30:02.807Z,0
2022-11-16T04:35:02.327Z,0
2022-11-16T04:40:03.265Z,0
2022-11-16T04:45:03.007Z,0
2022-11-16T04:50:02.528Z,0
2022-11-16T04:55:05.013Z,0
2022-11-16T05:00:03.231Z,0
2022-11-16T05:05:03.315Z,0
2022-11-16T05:10:02.929Z,0
2022-11-16T05:15:02.825Z,0
2022-11-16T05:20:03.040Z,0
2022-11-16T05:25:03.124Z,0
2022-11-16T05:30:02.789Z,0
2022-11-16T05:35:02.443Z,0
2022-11-16T05:40:03.413Z,0
2022-11-16T05:45:03.108Z,0
2022-11-16T05:50:03.636Z,0.23
2022-11-16T05:55:04.097Z,0.57
2022-11-16T06:00:03.441Z,1.25
2022-11-16T06:05:03.447Z,2.83
2022-11-16T06:10:02.766Z,7.47
2022-11-16T06:15:02.351Z,6.67
2022-11-16T06:20:03.055Z,18.33
2022-11-16T06:25:02.941Z,38.33
2022-11-16T06:30:02.964Z,80
2022-11-16T06:35:03.330Z,108.33
2022-11-16T06:40:02.734Z,130
2022-11-16T06:45:02.465Z,188.33
2022-11-16T06:50:03.119Z,213.33
2022-11-16T06:55:04.216Z,261.67
2022-11-16T07:00:02.614Z,296.67
2022-11-16T07:05:04.270Z,323.33
2022-11-16T07:10:03.531Z,351.67
2022-11-16T07:15:03.248Z,418.33
2022-11-16T07:20:02.740Z,528.33
2022-11-16T07:25:03.575Z,525
2022-11-16T07:30:03.015Z,703.33
2022-11-16T07:35:03.167Z,770
2022-11-16T07:40:03.031Z,940
2022-11-16T07:45:02.631Z,1080
2022-11-16T07:50:02.722Z,1010
2022-11-16T07:55:04.412Z,970
2022-11-16T08:00:03.263Z,1260
2022-11-16T08:05:02.638Z,1110
2022-11-16T08:10:02.417Z,1240
2022-11-16T08:15:03.390Z,1176.67
2022-11-16T08:20:03.336Z,1163.33
2022-11-16T08:25:03.050Z,1118.33
2022-11-16T08:30:02.729Z,1150
2022-11-16T08:35:02.968Z,1033.33
2022-11-16T08:40:03.322Z,1025
2022-11-16T08:45:03.407Z,1070
2022-11-16T08:50:03.010Z,1466.67
2022-11-16T08:55:04.001Z,1641.67
2022-11-16T09:00:02.344Z,1520
2022-11-16T09:05:03.449Z,1745
2022-11-16T09:10:02.942Z,1675
2022-11-16T09:15:03.303Z,1788.33
2022-11-16T09:20:02.707Z,1813.33
2022-11-16T09:25:03.205Z,1455
2022-11-16T09:30:02.499Z,1753.33
2022-11-16T09:35:02.999Z,1458.33
2022-11-16T09:40:02.986Z,1226.67
2022-11-16T09:45:03.271Z,1066.67
2022-11-16T09:50:03.295Z,951.67
2022-11-16T09:55:04.224Z,993.33
2022-11-16T12:00:02.671Z,828.33
2022-11-16T12:05:02.841Z,788.33
2022-11-16T12:10:03.230Z,723.33
2022-11-16T12:15:03.145Z,855
2022-11-16T12:20:02.939Z,995
2022-11-16T12:25:02.394Z,1086.67
2022-11-16T12:30:03.045Z,943.33
2022-11-16T12:35:02.694Z,920
2022-11-16T12:40:02.870Z,896.67
2022-11-16T12:45:03.285Z,970
2022-11-16T12:50:02.541Z,845
2022-11-16T12:55:27.434Z,760
2022-11-16T13:00:02.281Z,896.67
2022-11-16T13:05:02.961Z,1125
2022-11-16T13:10:02.586Z,976.67
2022-11-16T13:15:03.173Z,1186.67
2022-11-16T13:20:03.128Z,1070
2022-11-16T13:25:03.138Z,998.33
2022-11-16T13:30:02.473Z,821.67
2022-11-16T13:35:03.579Z,718.33
2022-11-16T13:40:02.458Z,568.33
2022-11-16T13:45:03.364Z,520
2022-11-16T13:50:02.847Z,481.67
2022-11-16T13:55:04.056Z,426.67
2022-11-16T14:00:02.394Z,418.33
2022-11-16T14:05:03.358Z,428.33
2022-11-16T14:10:02.775Z,475
2022-11-16T14:15:03.888Z,421.67
2022-11-16T14:20:03.300Z,373.33
2022-11-16T14:25:02.673Z,360
2022-11-16T14:30:02.715Z,288.33
2022-11-16T14:35:03.187Z,223.33
2022-11-16T14:40:02.698Z,185
2022-11-16T14:45:02.848Z,153.33
2022-11-16T14:50:03.167Z,118.33
2022-11-16T14:55:04.224Z,86.67
2022-11-16T15:00:02.981Z,71.67
2022-11-16T15:05:02.466Z,55
2022-11-16T15:10:03.054Z,36.67
2022-11-16T15:15:03.061Z,23.33
2022-11-16T15:20:02.642Z,13.33
2022-11-16T15:25:03.191Z,8.33
2022-11-16T15:30:03.045Z,11.21
2022-11-16T15:35:05.779Z,6.34
2022-11-16T15:40:03.146Z,2.49
2022-11-16T15:50:02.743Z,0.79
2022-11-16T15:55:03.602Z,0.23
2022-11-16T16:00:03.472Z,0
2022-11-16T16:05:02.424Z,0
2022-11-16T16:10:03.523Z,0
2022-11-16T16:15:03.176Z,0
2022-11-16T16:20:02.901Z,0
2022-11-16T16:25:03.269Z,0
2022-11-16T16:30:03.412Z,0
2022-11-16T16:35:03.217Z,0
2022-11-16T16:40:03.168Z,0
2022-11-16T16:45:03.279Z,0
2022-11-16T16:50:03.042Z,0
2022-11-16T16:55:04.470Z,0
2022-11-16T17:00:03.143Z,0
2022-11-16T17:05:02.676Z,0
2022-11-16T17:10:03.217Z,0
2022-11-16T17:15:03.258Z,0
2022-11-16T17:20:02.204Z,0
2022-11-16T17:25:03.019Z,0
2022-11-16T17:30:02.468Z,0
2022-11-16T17:35:03.176Z,0
2022-11-16T17:40:03.062Z,0
2022-11-16T17:45:02.772Z,0
2022-11-16T17:50:03.033Z,0
2022-11-16T17:55:03.947Z,0
2022-11-16T18:00:02.425Z,0
2022-11-16T18:05:03.158Z,0
2022-11-16T18:10:03.140Z,0
2022-11-16T18:15:26.786Z,0
2022-11-16T18:20:03.214Z,0
2022-11-16T18:25:02.776Z,0
2022-11-16T18:30:02.613Z,0
2022-11-16T18:35:03.206Z,0
2022-11-16T18:40:03.121Z,0
2022-11-16T18:45:02.586Z,0
2022-11-16T18:50:03.256Z,0
2022-11-16T18:55:04.296Z,0
2022-11-16T19:00:03.846Z,0
2022-11-16T19:05:02.208Z,0
2022-11-16T19:10:03.145Z,0
2022-11-16T19:15:02.410Z,0
2022-11-16T19:20:03.560Z,0
2022-11-16T19:25:06.277Z,0
2022-11-16T19:30:02.629Z,0
2022-11-16T19:35:02.504Z,0
2022-11-16T19:40:03.078Z,0
2022-11-16T19:45:03.216Z,0
2022-11-16T19:50:02.625Z,0
2022-11-16T19:55:04.870Z,0
2022-11-16T20:00:03.112Z,0
2022-11-16T20:05:02.645Z,0
2022-11-16T20:10:02.835Z,0
2022-11-16T20:15:03.328Z,0
2022-11-16T20:20:03.026Z,0
2022-11-16T20:25:02.649Z,0
2022-11-16T20:30:09.956Z,0
2022-11-16T20:35:02.605Z,0
2022-11-16T20:40:02.470Z,0
2022-11-16T20:45:03.040Z,0
2022-11-16T20:50:02.877Z,0
2022-11-16T20:55:04.073Z,0
2022-11-16T21:00:03.123Z,0
2022-11-16T21:05:03.438Z,0
2022-11-16T21:10:02.674Z,0
2022-11-16T21:15:02.585Z,0
2022-11-16T21:20:28.029Z,0
2022-11-16T21:25:02.306Z,0
2022-11-16T21:30:03.518Z,0
2022-11-16T21:35:02.751Z,0
2022-11-16T21:40:02.539Z,0
2022-11-16T21:45:03.302Z,0
2022-11-16T21:50:31.478Z,0
2022-11-16T21:55:03.981Z,0
2022-11-16T22:00:03.096Z,0
2022-11-16T22:05:02.924Z,0
2022-11-16T22:10:02.635Z,0
2022-11-16T22:15:03.237Z,0
2022-11-16T22:20:03.520Z,0
2022-11-16T22:25:02.763Z,0
2022-11-16T22:30:02.719Z,0
2022-11-16T22:35:02.368Z,0
2022-11-16T22:40:03.107Z,0
2022-11-16T22:45:03.110Z,0
2022-11-16T22:50:02.340Z,0
2022-11-16T22:55:04.766Z,0
2022-11-16T23:00:03.261Z,0
2022-11-16T23:05:02.580Z,0
2022-11-16T23:10:02.352Z,0
2022-11-16T23:15:03.408Z,0
2022-11-16T23:20:02.835Z,0
2022-11-16T23:25:02.892Z,0
2022-11-16T23:30:13.699Z,0
2022-11-16T23:35:02.978Z,0
2022-11-16T23:40:03.136Z,0
2022-11-16T23:45:02.505Z,0
2022-11-16T23:50:03.435Z,0
2022-11-16T23:55:04.308Z,0
